KALM

Details ICAO KALM (ALM)
Name ALAMOGORDO WHITE SANDS RGNL
Region United States
Timezone America/Denver (UTC-7.0)
Plans Departing 12
Arriving 15
Stats Elevation 4,200 ft / 1,280 m (AMSL)
Location 32.841845° -105.988007°
Runways 2
Magnetic Variation 8.050° E
Sunrise 2017-12-13 13:59:24 UTC / 2017-12-13 06:59:24 Local
Sunset 2017-12-14 00:00:01 UTC / 2017-12-13 17:00:01 Local
Advertisement - Login to hide

Runways

ID Width Length Bearing (true) Bearing (mag) Surface Threshold Offset Overrun Length
03 150 ft / 46 m 7,007 ft / 2,136 m 45.42° 37.37° Asphalt 0 ft / 0 m 0 ft / 0 m
16 200 ft / 61 m 3,573 ft / 1,089 m 173.20° 165.15° Dirt 0 ft / 0 m 0 ft / 0 m
21 150 ft / 46 m 7,007 ft / 2,136 m 225.43° 217.38° Asphalt 0 ft / 0 m 0 ft / 0 m
34 200 ft / 61 m 3,573 ft / 1,089 m 353.20° 345.15° Dirt 0 ft / 0 m 0 ft / 0 m

Map

Weather


0- 5 10 15 20 25 30 35+ Temperature / ° C

Clouds and Precipitation
Forecast for 2017-12-13 12:00 UTC. Updated 2 minutes ago

Ground ~20,000 ft ~40,000 ft Winds

METAR

KALM 131115Z AUTO 02005KT 10SM CLR M02/M15 A3019 RMK AO2

TAF

Not found

Frequencies

Recorded 127.82 MHz AWOS 3
Approach 120.60 MHz HOLLOMAN APP
Unicom 122.80 MHz CTAF/UNICOM
Departure 128.10 MHz HOLLOMAN DEP
Warning: Do not use this data for real-world aviation or navigation. No guarantee of current accuracy is given.